createdAt,value
2019-03-06T00:00:51.491Z,3.20
2019-03-06T00:03:23.438Z,3.17
2019-03-06T00:05:54.629Z,3.00
2019-03-06T00:08:25.731Z,3.23
2019-03-06T00:10:57.029Z,2.80
2019-03-06T00:13:28.276Z,3.83
2019-03-06T00:15:59.571Z,3.00
2019-03-06T00:18:30.812Z,3.17
2019-03-06T00:21:01.995Z,3.80
2019-03-06T00:23:33.285Z,3.10
2019-03-06T00:26:05.024Z,3.13
2019-03-06T00:28:36.274Z,2.80
2019-03-06T00:31:07.712Z,2.63
2019-03-06T00:33:38.912Z,3.07
2019-03-06T00:36:16.519Z,2.93
2019-03-06T00:38:47.817Z,3.13
2019-03-06T00:41:37.790Z,3.03
2019-03-06T00:44:09.154Z,3.00
2019-03-06T00:46:40.368Z,2.60
2019-03-06T00:49:11.642Z,3.67
2019-03-06T00:51:42.914Z,4.60
2019-03-06T00:54:14.249Z,3.73
2019-03-06T00:56:45.461Z,3.20
2019-03-06T00:59:16.743Z,3.20
2019-03-06T01:01:48.126Z,4.27
2019-03-06T01:04:19.577Z,3.20
2019-03-06T01:06:50.695Z,4.00
2019-03-06T01:09:21.911Z,3.73
2019-03-06T01:11:53.251Z,4.20
2019-03-06T01:14:24.541Z,3.80
2019-03-06T01:16:55.755Z,4.60
2019-03-06T01:19:27.037Z,4.33
2019-03-06T01:21:58.223Z,3.80
2019-03-06T01:24:29.341Z,4.53
2019-03-06T01:27:00.585Z,4.17
2019-03-06T01:29:31.681Z,4.20
2019-03-06T01:32:02.887Z,4.00
2019-03-06T01:34:48.205Z,4.57
2019-03-06T01:37:33.419Z,4.67
2019-03-06T01:40:29.311Z,4.33
2019-03-06T01:43:11.579Z,6.70
2019-03-06T01:45:42.809Z,5.73
2019-03-06T01:48:14.039Z,3.40
2019-03-06T01:50:45.297Z,5.33
2019-03-06T01:53:16.502Z,5.43
2019-03-06T01:55:47.764Z,5.07
2019-03-06T01:58:19.080Z,4.17
2019-03-06T02:00:50.355Z,6.13
2019-03-06T02:03:21.541Z,4.53
2019-03-06T02:05:52.749Z,4.70
2019-03-06T02:08:23.983Z,5.90
2019-03-06T02:10:55.343Z,6.87
2019-03-06T02:13:26.591Z,5.67
2019-03-06T02:15:57.805Z,5.43
2019-03-06T02:18:29.253Z,5.70
2019-03-06T02:21:00.694Z,6.03
2019-03-06T02:23:31.936Z,6.70
2019-03-06T02:26:03.217Z,5.97
2019-03-06T02:28:34.356Z,5.90
2019-03-06T02:31:05.596Z,7.57
2019-03-06T02:33:36.842Z,6.40
2019-03-06T02:36:08.087Z,6.80
2019-03-06T02:38:39.312Z,8.33
2019-03-06T02:41:10.436Z,6.80
2019-03-06T02:43:41.764Z,8.17
2019-03-06T02:46:12.880Z,7.40
2019-03-06T02:48:44.183Z,7.07
2019-03-06T02:51:15.330Z,7.67
2019-03-06T02:53:46.486Z,8.03
2019-03-06T02:56:17.738Z,8.07
2019-03-06T02:59:09.598Z,8.20
2019-03-06T03:01:55.390Z,8.67
2019-03-06T03:04:36.951Z,9.03
2019-03-06T03:07:11.419Z,10.37
2019-03-06T03:09:42.833Z,8.87
2019-03-06T03:12:14.101Z,8.10
2019-03-06T03:14:45.288Z,7.03
2019-03-06T03:17:16.500Z,8.50
2019-03-06T03:19:47.738Z,8.80
2019-03-06T03:22:18.990Z,8.73
2019-03-06T03:24:50.118Z,8.20
2019-03-06T03:27:21.359Z,8.37
2019-03-06T03:29:52.501Z,8.10
2019-03-06T03:32:23.825Z,7.43
2019-03-06T03:34:55.097Z,8.23
2019-03-06T03:37:26.432Z,7.07
2019-03-06T03:39:57.659Z,8.57
2019-03-06T03:42:29.139Z,7.93
2019-03-06T03:45:00.549Z,8.57
2019-03-06T03:47:31.766Z,9.50
2019-03-06T03:50:03.052Z,7.63
2019-03-06T03:52:34.217Z,8.90
2019-03-06T03:55:05.948Z,7.90
2019-03-06T03:57:37.233Z,7.53
2019-03-06T04:00:11.001Z,6.87
2019-03-06T04:02:42.371Z,7.63
2019-03-06T04:05:14.615Z,7.10
2019-03-06T04:07:45.951Z,8.77
2019-03-06T04:10:17.229Z,9.53
2019-03-06T04:12:48.554Z,8.00
2019-03-06T04:15:20.126Z,8.10
2019-03-06T04:17:51.423Z,8.00
2019-03-06T04:20:22.671Z,8.23
2019-03-06T04:22:53.986Z,8.13
2019-03-06T04:25:25.236Z,8.87
2019-03-06T04:27:56.440Z,8.40
2019-03-06T04:30:27.741Z,7.10
2019-03-06T04:32:58.980Z,8.93
2019-03-06T04:35:30.285Z,7.73
2019-03-06T04:38:01.825Z,7.97
2019-03-06T04:40:33.077Z,8.43
2019-03-06T04:43:04.181Z,8.27
2019-03-06T04:45:35.430Z,8.20
2019-03-06T04:48:06.625Z,7.17
2019-03-06T04:50:37.865Z,6.90
2019-03-06T04:53:08.986Z,8.17
2019-03-06T04:55:40.190Z,7.90
2019-03-06T04:58:11.346Z,8.17
2019-03-06T05:00:42.618Z,9.20
2019-03-06T05:03:13.835Z,7.40
2019-03-06T05:05:45.038Z,7.73
2019-03-06T05:08:16.209Z,7.17
2019-03-06T05:10:47.685Z,6.97
2019-03-06T05:13:18.913Z,6.70
2019-03-06T05:15:50.123Z,8.27
2019-03-06T05:18:43.331Z,7.40
2019-03-06T05:21:14.513Z,8.23
2019-03-06T05:23:45.825Z,7.57
2019-03-06T05:26:16.996Z,7.40
2019-03-06T05:28:48.207Z,7.97
2019-03-06T05:31:19.459Z,7.37
2019-03-06T05:33:50.764Z,7.60
2019-03-06T05:37:20.099Z,7.97
2019-03-06T05:39:51.463Z,7.10
2019-03-06T05:42:22.606Z,7.80
2019-03-06T05:44:54.223Z,6.97
2019-03-06T05:47:25.458Z,7.67
2019-03-06T05:49:56.679Z,7.73
2019-03-06T05:52:27.825Z,7.53
2019-03-06T05:54:58.963Z,6.43
2019-03-06T05:57:30.178Z,7.60
2019-03-06T06:00:01.397Z,7.23
2019-03-06T06:02:32.676Z,6.90
2019-03-06T06:05:03.956Z,7.00
2019-03-06T06:07:35.236Z,7.10
2019-03-06T06:10:06.956Z,8.23
2019-03-06T06:12:38.187Z,8.10
2019-03-06T06:15:10.849Z,7.63
2019-03-06T06:17:42.100Z,7.33
2019-03-06T06:20:13.427Z,7.50
2019-03-06T06:22:53.154Z,6.50
2019-03-06T06:25:24.384Z,7.50
2019-03-06T06:27:55.666Z,7.03
2019-03-06T06:30:26.968Z,6.67
2019-03-06T06:32:58.334Z,6.10
2019-03-06T06:35:29.577Z,7.00
2019-03-06T06:38:00.828Z,5.83
2019-03-06T06:40:32.065Z,6.57
2019-03-06T06:43:03.311Z,6.17
2019-03-06T06:45:34.772Z,6.03
2019-03-06T06:48:14.953Z,5.57
2019-03-06T06:51:00.954Z,5.30
2019-03-06T06:53:59.684Z,4.90
2019-03-06T06:57:42.864Z,5.30
2019-03-06T07:01:28.207Z,4.80
2019-03-06T07:04:39.221Z,5.00
2019-03-06T07:07:22.165Z,5.17
2019-03-06T07:10:10.845Z,4.80
2019-03-06T07:12:58.114Z,5.00
2019-03-06T07:15:39.444Z,5.53
2019-03-06T07:18:25.120Z,6.37
2019-03-06T07:21:10.882Z,5.53
2019-03-06T07:23:57.478Z,6.13
2019-03-06T07:26:47.922Z,4.13
2019-03-06T07:29:33.877Z,5.30
2019-03-06T07:32:39.030Z,4.47
2019-03-06T07:36:16.917Z,5.00
2019-03-06T07:38:49.136Z,4.83
2019-03-06T07:41:39.194Z,5.30
2019-03-06T07:44:31.125Z,5.17
2019-03-06T07:47:19.753Z,6.07
2019-03-06T07:49:57.681Z,5.50
2019-03-06T07:52:46.379Z,5.33
2019-03-06T07:55:40.716Z,5.40
2019-03-06T07:58:56.759Z,4.87
2019-03-06T08:01:31.284Z,4.53
2019-03-06T08:04:14.460Z,4.60
2019-03-06T08:06:55.362Z,4.50
2019-03-06T08:09:26.653Z,5.00
2019-03-06T08:12:14.222Z,4.33
2019-03-06T08:15:02.657Z,3.53
2019-03-06T08:17:52.680Z,3.00
2019-03-06T08:20:34.212Z,4.07
2019-03-06T08:23:33.359Z,3.73
2019-03-06T08:26:05.738Z,3.40
2019-03-06T08:28:38.559Z,3.40
2019-03-06T08:31:31.717Z,3.40
2019-03-06T08:34:03.021Z,3.00
2019-03-06T08:36:34.465Z,2.80
2019-03-06T08:39:16.277Z,2.63
2019-03-06T08:41:47.669Z,2.73
2019-03-06T08:44:19.023Z,2.60
2019-03-06T08:47:05.043Z,2.60
2019-03-06T08:50:02.312Z,2.73
2019-03-06T08:52:41.243Z,2.73
2019-03-06T08:55:34.366Z,2.77
2019-03-06T08:58:21.174Z,2.83
2019-03-06T09:01:11.312Z,1.87
2019-03-06T09:04:16.519Z,1.50
2019-03-06T09:07:07.161Z,2.00
2019-03-06T09:09:56.000Z,1.60
2019-03-06T09:12:55.370Z,2.00
2019-03-06T09:15:43.592Z,1.90
2019-03-06T09:18:39.784Z,1.93
2019-03-06T09:21:25.465Z,1.93
2019-03-06T09:24:13.027Z,1.77
2019-03-06T09:27:06.281Z,2.13
2019-03-06T09:29:56.448Z,1.97
2019-03-06T09:32:49.561Z,1.87
2019-03-06T09:35:48.334Z,1.97
2019-03-06T09:38:41.627Z,1.80
2019-03-06T09:41:30.786Z,1.43
2019-03-06T09:44:26.963Z,2.03
2019-03-06T09:47:08.759Z,1.33
2019-03-06T09:49:57.455Z,1.73
2019-03-06T09:52:48.734Z,1.70
2019-03-06T09:55:51.060Z,1.90
2019-03-06T09:58:50.116Z,2.40
2019-03-06T10:01:43.262Z,1.60
2019-03-06T10:04:31.585Z,1.30
2019-03-06T10:07:21.711Z,2.00
2019-03-06T10:10:01.905Z,1.60
2019-03-06T10:12:47.207Z,1.40
2019-03-06T10:15:25.853Z,1.33
2019-03-06T10:18:18.712Z,1.93
2019-03-06T10:20:50.007Z,1.60
2019-03-06T10:23:21.269Z,2.07
2019-03-06T10:25:52.897Z,1.60
2019-03-06T10:31:02.394Z,1.80
2019-03-06T10:33:30.244Z,2.00
2019-03-06T10:36:01.867Z,1.30
2019-03-06T10:38:33.461Z,1.83
2019-03-06T10:41:05.093Z,1.47
2019-03-06T10:43:37.470Z,1.70
2019-03-06T10:46:09.064Z,1.40
2019-03-06T10:48:43.106Z,1.70
2019-03-06T10:51:16.402Z,1.77
2019-03-06T10:53:54.578Z,1.47
2019-03-06T10:56:35.929Z,1.60
2019-03-06T10:59:08.279Z,1.60
2019-03-06T11:01:39.987Z,2.00
2019-03-06T11:04:25.795Z,1.70
2019-03-06T11:06:57.287Z,2.20
2019-03-06T11:09:29.416Z,1.63
2019-03-06T11:12:00.908Z,1.90
2019-03-06T11:14:32.461Z,2.07
2019-03-06T11:17:15.468Z,1.50
2019-03-06T11:19:49.962Z,1.23
2019-03-06T11:22:21.232Z,2.10
2019-03-06T11:24:55.543Z,1.47
2019-03-06T11:27:26.798Z,2.30
2019-03-06T11:29:58.266Z,1.30
2019-03-06T11:32:30.109Z,1.90
2019-03-06T11:35:01.509Z,1.13
2019-03-06T11:37:34.319Z,2.00
2019-03-06T11:40:09.664Z,1.27
2019-03-06T11:42:41.371Z,1.87
2019-03-06T11:45:15.576Z,1.70
2019-03-06T11:47:50.040Z,1.30
2019-03-06T11:50:21.730Z,1.27
2019-03-06T11:52:53.463Z,1.30
2019-03-06T11:55:25.876Z,1.57
2019-03-06T11:57:57.556Z,1.90
2019-03-06T12:00:43.267Z,1.50
2019-03-06T12:03:17.078Z,1.63
2019-03-06T12:05:50.594Z,1.90
2019-03-06T12:08:22.836Z,1.50
2019-03-06T12:10:56.576Z,1.57
2019-03-06T12:13:27.976Z,2.27
2019-03-06T12:15:59.344Z,1.20
2019-03-06T12:18:34.923Z,2.83
2019-03-06T12:21:06.321Z,1.60
2019-03-06T12:23:37.602Z,1.43
2019-03-06T12:26:08.982Z,1.97
2019-03-06T12:28:40.757Z,1.33
2019-03-06T12:31:13.025Z,1.37
2019-03-06T12:33:44.388Z,1.90
2019-03-06T12:36:15.833Z,1.50
2019-03-06T12:38:50.512Z,1.20
2019-03-06T12:41:22.067Z,1.30
2019-03-06T12:43:53.848Z,1.30
2019-03-06T12:46:26.677Z,7.10
2019-03-06T12:49:07.177Z,8.93
2019-03-06T12:51:39.423Z,2.63
2019-03-06T12:54:11.174Z,2.37
2019-03-06T12:56:42.407Z,3.00
2019-03-06T12:59:14.227Z,2.20
2019-03-06T13:01:45.514Z,3.03
2019-03-06T13:04:16.837Z,1.70
2019-03-06T13:06:48.085Z,2.00
2019-03-06T13:09:22.910Z,2.20
2019-03-06T13:11:54.218Z,1.30
2019-03-06T13:14:25.683Z,1.70
2019-03-06T13:16:57.692Z,1.23
2019-03-06T13:19:29.423Z,1.57
2019-03-06T13:22:00.745Z,1.50
2019-03-06T13:24:32.054Z,1.60
2019-03-06T13:27:03.560Z,1.40
2019-03-06T13:29:39.433Z,1.30
2019-03-06T13:32:12.264Z,1.40
2019-03-06T13:34:54.482Z,1.40
2019-03-06T13:37:25.458Z,1.30
2019-03-06T13:40:03.280Z,1.10
2019-03-06T13:42:33.936Z,2.00
2019-03-06T13:45:05.567Z,1.27
2019-03-06T13:47:36.837Z,1.80
2019-03-06T13:50:11.806Z,1.30
2019-03-06T13:52:43.247Z,2.40
2019-03-06T13:55:23.484Z,2.23
2019-03-06T13:58:00.354Z,1.50
2019-03-06T14:00:31.808Z,2.87
2019-03-06T14:03:03.071Z,1.47
2019-03-06T14:05:34.463Z,1.80
2019-03-06T14:08:07.397Z,2.00
2019-03-06T14:10:38.900Z,2.77
2019-03-06T14:13:10.111Z,4.93
2019-03-06T14:15:41.390Z,1.57
2019-03-06T14:18:14.783Z,2.30
2019-03-06T14:20:46.196Z,2.00
2019-03-06T14:23:17.647Z,1.93
2019-03-06T14:25:48.928Z,1.63
2019-03-06T14:28:20.136Z,1.67
2019-03-06T14:30:51.510Z,1.67
2019-03-06T14:33:25.389Z,1.43
2019-03-06T14:35:57.038Z,2.03
2019-03-06T14:38:28.248Z,1.20
2019-03-06T14:41:00.442Z,1.10
2019-03-06T14:43:31.769Z,1.73
2019-03-06T14:46:03.177Z,1.60
2019-03-06T14:48:34.468Z,1.10
2019-03-06T14:51:05.932Z,1.33
2019-03-06T14:53:37.382Z,1.27
2019-03-06T14:56:09.277Z,2.00
2019-03-06T14:58:40.967Z,2.20
2019-03-06T15:01:12.349Z,1.77
2019-03-06T15:03:43.446Z,2.10
2019-03-06T15:06:14.944Z,1.80
2019-03-06T15:08:46.305Z,1.93
2019-03-06T15:11:17.767Z,1.93
2019-03-06T15:13:49.366Z,1.43
2019-03-06T15:16:20.649Z,2.10
2019-03-06T15:18:52.029Z,1.90
2019-03-06T15:21:23.368Z,1.80
2019-03-06T15:23:54.824Z,1.97
2019-03-06T15:26:26.077Z,1.60
2019-03-06T15:28:57.470Z,2.63
2019-03-06T15:31:28.793Z,1.43
2019-03-06T15:34:00.174Z,1.97
2019-03-06T15:36:32.703Z,1.70
2019-03-06T15:39:06.110Z,1.90
2019-03-06T15:41:37.367Z,2.10
2019-03-06T15:44:08.683Z,2.23
2019-03-06T15:46:40.108Z,2.00
2019-03-06T15:49:11.531Z,2.03
2019-03-06T15:51:42.816Z,2.30
2019-03-06T15:54:15.019Z,1.90
2019-03-06T15:56:46.435Z,1.80
2019-03-06T15:59:17.932Z,1.80
2019-03-06T16:01:49.440Z,2.00
2019-03-06T16:04:20.942Z,2.10
2019-03-06T16:06:54.290Z,1.70
2019-03-06T16:09:25.737Z,3.23
2019-03-06T16:11:57.423Z,1.53
2019-03-06T16:14:28.859Z,1.80
2019-03-06T16:17:00.148Z,1.70
2019-03-06T16:19:31.385Z,3.13
2019-03-06T16:22:02.830Z,2.63
2019-03-06T16:24:34.208Z,2.13
2019-03-06T16:27:05.698Z,2.00
2019-03-06T16:29:36.999Z,2.73
2019-03-06T16:32:08.655Z,2.17
2019-03-06T16:34:40.431Z,1.83
2019-03-06T16:37:11.833Z,1.77
2019-03-06T16:39:44.500Z,2.23
2019-03-06T16:42:23.778Z,2.00
2019-03-06T16:44:55.386Z,1.87
2019-03-06T16:47:27.028Z,2.40
2019-03-06T16:49:59.031Z,2.13
2019-03-06T16:52:32.455Z,2.30
2019-03-06T16:55:03.931Z,2.10
2019-03-06T16:57:35.263Z,2.23
2019-03-06T17:00:26.340Z,2.40
2019-03-06T17:02:58.252Z,2.27
2019-03-06T17:05:30.374Z,2.70
2019-03-06T17:08:02.724Z,1.93
2019-03-06T17:10:34.546Z,2.43
2019-03-06T17:13:06.744Z,3.00
2019-03-06T17:15:38.286Z,2.27
2019-03-06T17:18:09.744Z,2.60
2019-03-06T17:20:41.163Z,2.43
2019-03-06T17:23:12.694Z,2.43
2019-03-06T17:25:44.316Z,2.00
2019-03-06T17:28:15.651Z,2.97
2019-03-06T17:30:47.161Z,3.17
2019-03-06T17:33:19.027Z,2.30
2019-03-06T17:35:50.351Z,2.17
2019-03-06T17:38:21.869Z,2.70
2019-03-06T17:40:53.576Z,2.50
2019-03-06T17:43:24.966Z,2.63
2019-03-06T17:45:56.495Z,2.93
2019-03-06T17:48:28.077Z,3.37
2019-03-06T17:51:01.887Z,2.83
2019-03-06T17:53:38.239Z,2.50
2019-03-06T17:56:11.664Z,2.60
2019-03-06T17:58:43.472Z,3.60
2019-03-06T18:01:19.430Z,2.87
2019-03-06T18:03:57.025Z,3.40
2019-03-06T18:06:28.449Z,3.00
2019-03-06T18:08:59.812Z,4.60
2019-03-06T18:11:33.217Z,4.23
2019-03-06T18:14:05.764Z,3.57
2019-03-06T18:16:37.425Z,2.93
2019-03-06T18:19:08.757Z,3.70
2019-03-06T18:21:40.095Z,3.50
2019-03-06T18:24:11.331Z,3.13
2019-03-06T18:26:42.713Z,3.00
2019-03-06T18:29:14.015Z,2.80
2019-03-06T18:31:45.354Z,3.27
2019-03-06T18:34:19.684Z,4.17
2019-03-06T18:36:52.291Z,3.60
2019-03-06T18:39:29.432Z,3.60
2019-03-06T18:42:01.084Z,3.80
2019-03-06T18:44:35.302Z,4.03
2019-03-06T18:47:06.615Z,3.10
2019-03-06T18:49:37.990Z,2.83
2019-03-06T18:52:09.412Z,2.67
2019-03-06T18:54:40.761Z,3.43
2019-03-06T18:57:13.418Z,3.50
2019-03-06T18:59:46.599Z,3.07
2019-03-06T19:02:24.544Z,3.77
2019-03-06T19:04:58.476Z,3.80
2019-03-06T19:07:29.899Z,3.47
2019-03-06T19:10:01.791Z,3.30
2019-03-06T19:12:32.979Z,3.20
2019-03-06T19:15:05.039Z,3.53
2019-03-06T19:17:39.190Z,3.60
2019-03-06T19:20:16.090Z,3.67
2019-03-06T19:22:48.190Z,3.83
2019-03-06T19:25:20.029Z,3.50
2019-03-06T19:27:51.777Z,3.43
2019-03-06T19:30:26.949Z,3.47
2019-03-06T19:32:58.218Z,3.10
2019-03-06T19:35:40.041Z,3.40
2019-03-06T19:38:12.990Z,3.00
2019-03-06T19:40:44.291Z,3.10
2019-03-06T19:43:15.883Z,3.90
2019-03-06T19:45:47.268Z,3.83
2019-03-06T19:48:18.455Z,3.03
2019-03-06T19:50:50.064Z,3.03
2019-03-06T19:53:21.395Z,2.97
2019-03-06T19:55:53.078Z,4.00
2019-03-06T19:58:24.458Z,3.30
2019-03-06T20:00:55.973Z,3.17
2019-03-06T20:03:27.650Z,3.80
2019-03-06T20:05:59.120Z,3.30
2019-03-06T20:08:30.442Z,3.20
2019-03-06T20:11:01.827Z,2.87
2019-03-06T20:13:33.097Z,2.90
2019-03-06T20:16:04.643Z,3.67
2019-03-06T20:18:35.988Z,2.93
2019-03-06T20:21:11.241Z,2.83
2019-03-06T20:23:42.468Z,4.20
2019-03-06T20:26:14.864Z,3.20
2019-03-06T20:28:47.330Z,3.40
2019-03-06T20:31:18.850Z,3.07
2019-03-06T20:33:51.431Z,3.53
2019-03-06T20:36:26.013Z,3.40
2019-03-06T20:38:57.359Z,3.50
2019-03-06T20:41:28.713Z,3.70
2019-03-06T20:44:00.121Z,3.13
2019-03-06T20:46:31.279Z,3.97
2019-03-06T20:49:02.768Z,2.87
2019-03-06T20:51:37.384Z,4.00
2019-03-06T20:54:10.112Z,3.70
2019-03-06T20:56:41.469Z,4.80
2019-03-06T20:59:12.831Z,3.40
2019-03-06T21:01:46.253Z,4.07
2019-03-06T21:04:17.419Z,3.80
2019-03-06T21:06:49.209Z,3.93
2019-03-06T21:09:20.626Z,3.73
2019-03-06T21:11:52.579Z,3.87
2019-03-06T21:14:24.053Z,4.50
2019-03-06T21:16:55.536Z,3.90
2019-03-06T21:19:26.838Z,3.87
2019-03-06T21:21:58.246Z,4.07
2019-03-06T21:24:32.295Z,4.03
2019-03-06T21:27:03.662Z,3.50
2019-03-06T21:29:35.005Z,3.13
2019-03-06T21:32:06.459Z,4.60
2019-03-06T21:34:37.844Z,4.67
2019-03-06T21:37:09.266Z,3.87
2019-03-06T21:39:40.512Z,3.90
2019-03-06T21:42:11.751Z,3.73
2019-03-06T21:44:43.001Z,4.03
2019-03-06T21:47:14.351Z,3.93
2019-03-06T21:49:45.793Z,4.57
2019-03-06T21:52:17.002Z,4.70
2019-03-06T21:54:48.345Z,4.33
2019-03-06T21:57:19.683Z,3.67
2019-03-06T21:59:50.959Z,3.63
2019-03-06T22:02:22.671Z,4.73
2019-03-06T22:04:54.111Z,3.40
2019-03-06T22:07:25.462Z,3.90
2019-03-06T22:09:56.871Z,4.67
2019-03-06T22:12:28.121Z,3.53
2019-03-06T22:14:59.515Z,4.20
2019-03-06T22:17:30.884Z,3.83
2019-03-06T22:20:02.178Z,3.57
2019-03-06T22:22:33.501Z,4.00
2019-03-06T22:25:05.195Z,4.80
2019-03-06T22:27:36.669Z,3.70
2019-03-06T22:30:11.500Z,3.97
2019-03-06T22:32:42.798Z,4.83
2019-03-06T22:35:14.177Z,3.97
2019-03-06T22:37:45.666Z,4.00
2019-03-06T22:40:17.357Z,4.83
2019-03-06T22:42:48.765Z,4.00
2019-03-06T22:45:20.311Z,4.77
2019-03-06T22:47:51.692Z,4.97
2019-03-06T22:50:25.910Z,5.47
2019-03-06T22:52:57.307Z,4.00
2019-03-06T22:55:28.570Z,3.87
2019-03-06T22:57:59.872Z,5.30
2019-03-06T23:01:00.282Z,4.17
2019-03-06T23:03:33.139Z,5.30
2019-03-06T23:06:05.027Z,4.10
2019-03-06T23:08:36.435Z,4.30
2019-03-06T23:11:08.607Z,4.60
2019-03-06T23:13:41.846Z,4.60
2019-03-06T23:16:13.051Z,4.57
2019-03-06T23:18:44.300Z,3.73
2019-03-06T23:21:15.713Z,4.10
2019-03-06T23:23:46.951Z,4.40
2019-03-06T23:26:18.196Z,4.27
2019-03-06T23:28:49.540Z,3.93
2019-03-06T23:31:20.858Z,4.30
2019-03-06T23:33:52.030Z,4.37
2019-03-06T23:36:23.337Z,3.60
2019-03-06T23:39:12.917Z,4.10
2019-03-06T23:41:44.331Z,4.10
2019-03-06T23:44:17.292Z,3.50
2019-03-06T23:46:48.549Z,4.03
2019-03-06T23:49:19.791Z,3.63
2019-03-06T23:51:57.273Z,4.70
2019-03-06T23:54:28.644Z,4.30
2019-03-06T23:56:59.951Z,3.90
2019-03-06T23:59:31.173Z,3.87
